createdAt,value
2022-07-29T00:02:07.376Z,17.60
2022-07-29T00:04:35.913Z,17.50
2022-07-29T00:07:03.111Z,17.50
2022-07-29T00:09:29.371Z,17.50
2022-07-29T00:11:58.793Z,17.40
2022-07-29T00:14:25.542Z,17.40
2022-07-29T00:16:52.197Z,17.30
2022-07-29T00:19:18.400Z,17.30
2022-07-29T00:21:44.673Z,17.20
2022-07-29T00:24:10.799Z,17.20
2022-07-29T00:26:37.032Z,17.10
2022-07-29T00:29:32.934Z,17.10
2022-07-29T00:31:51.193Z,17.10
2022-07-29T00:34:36.466Z,17.10
2022-07-29T00:37:03.054Z,17.00
2022-07-29T00:39:29.769Z,16.90
2022-07-29T00:41:56.085Z,16.90
2022-07-29T00:44:22.232Z,16.90
2022-07-29T00:46:48.351Z,16.90
2022-07-29T00:49:14.539Z,16.80
2022-07-29T00:51:41.362Z,16.80
2022-07-29T00:54:07.867Z,16.80
2022-07-29T00:56:34.425Z,16.80
2022-07-29T00:59:00.888Z,16.70
2022-07-29T01:01:28.703Z,16.70
2022-07-29T01:03:55.072Z,16.70
2022-07-29T01:06:21.571Z,16.70
2022-07-29T01:08:49.073Z,16.70
2022-07-29T01:11:17.307Z,16.70
2022-07-29T01:13:46.242Z,16.70
2022-07-29T01:16:42.407Z,16.70
2022-07-29T01:19:23.846Z,16.70
2022-07-29T01:22:00.017Z,16.60
2022-07-29T01:24:44.777Z,16.60
2022-07-29T01:27:52.891Z,16.60
2022-07-29T01:30:19.288Z,16.50
2022-07-29T01:32:51.977Z,16.50
2022-07-29T01:35:26.437Z,16.40
2022-07-29T01:38:25.961Z,16.40
2022-07-29T01:40:57.696Z,16.30
2022-07-29T01:43:52.005Z,16.30
2022-07-29T01:46:30.754Z,16.30
2022-07-29T01:49:11.076Z,16.20
2022-07-29T01:51:43.747Z,16.20
2022-07-29T01:54:37.697Z,16.20
2022-07-29T01:57:07.134Z,16.20
2022-07-29T01:59:35.341Z,16.10
2022-07-29T02:02:03.203Z,16.10
2022-07-29T02:04:32.362Z,16.10
2022-07-29T02:07:03.985Z,16.10
2022-07-29T02:09:31.870Z,16.10
2022-07-29T02:11:59.475Z,16.20
2022-07-29T02:14:28.998Z,16.10
2022-07-29T02:16:58.573Z,16.20
2022-07-29T02:19:28.083Z,16.20
2022-07-29T02:21:56.523Z,16.20
2022-07-29T02:24:24.787Z,16.20
2022-07-29T02:26:53.209Z,16.20
2022-07-29T02:29:23.169Z,16.20
2022-07-29T02:31:50.837Z,16.20
2022-07-29T02:34:19.061Z,16.20
2022-07-29T02:36:46.693Z,16.20
2022-07-29T02:39:17.510Z,16.20
2022-07-29T02:41:59.568Z,16.30
2022-07-29T02:44:29.024Z,16.20
2022-07-29T02:47:19.599Z,16.30
2022-07-29T02:50:01.711Z,16.20
2022-07-29T02:52:52.752Z,16.20
2022-07-29T02:55:37.261Z,16.20
2022-07-29T02:58:23.167Z,16.20
2022-07-29T03:00:52.943Z,16.20
2022-07-29T03:03:21.528Z,16.20
2022-07-29T03:05:47.666Z,16.20
2022-07-29T03:08:16.138Z,16.20
2022-07-29T03:10:45.894Z,16.20
2022-07-29T03:13:13.401Z,16.20
2022-07-29T03:15:39.904Z,16.20
2022-07-29T03:18:06.789Z,16.20
2022-07-29T03:20:32.968Z,16.20
2022-07-29T03:22:59.193Z,16.10
2022-07-29T03:25:27.334Z,16.10
2022-07-29T03:27:53.514Z,16.10
2022-07-29T03:30:22.317Z,16.10
2022-07-29T03:32:52.041Z,16.10
2022-07-29T03:35:22.839Z,16.10
2022-07-29T03:37:49.243Z,16.10
2022-07-29T03:40:23.394Z,16.10
2022-07-29T03:42:51.366Z,16.10
2022-07-29T03:45:19.891Z,16.10
2022-07-29T03:48:00.745Z,16.10
2022-07-29T03:50:29.541Z,16.10
2022-07-29T03:52:55.828Z,16.10
2022-07-29T03:55:22.262Z,16.10
2022-07-29T03:57:49.982Z,16.00
2022-07-29T04:00:16.476Z,16.00
2022-07-29T04:02:48.434Z,16.00
2022-07-29T04:05:15.823Z,16.00
2022-07-29T04:07:48.112Z,16.00
2022-07-29T04:10:16.018Z,16.10
2022-07-29T04:12:42.830Z,16.10
2022-07-29T04:15:09.423Z,16.10
2022-07-29T04:17:35.642Z,16.10
2022-07-29T04:20:01.753Z,16.10
2022-07-29T04:22:27.933Z,16.10
2022-07-29T04:24:54.041Z,16.10
2022-07-29T04:27:20.237Z,16.10
2022-07-29T04:29:56.480Z,16.10
2022-07-29T04:32:23.903Z,16.10
2022-07-29T04:34:50.016Z,16.10
2022-07-29T04:37:16.586Z,16.10
2022-07-29T04:39:42.748Z,16.10
2022-07-29T04:42:09.186Z,16.10
2022-07-29T04:44:37.214Z,16.10
2022-07-29T04:47:08.515Z,16.10
2022-07-29T04:49:34.726Z,16.10
2022-07-29T04:52:00.861Z,16.10
2022-07-29T04:54:27.310Z,16.10
2022-07-29T04:56:53.387Z,16.10
2022-07-29T04:59:19.754Z,16.20
2022-07-29T05:01:46.295Z,16.20
2022-07-29T05:04:12.620Z,16.20
2022-07-29T05:06:38.924Z,16.20
2022-07-29T05:09:05.162Z,16.20
2022-07-29T05:11:31.254Z,16.30
2022-07-29T05:13:57.328Z,16.30
2022-07-29T05:16:23.562Z,16.30
2022-07-29T05:18:49.690Z,16.40
2022-07-29T05:21:15.827Z,16.50
2022-07-29T05:23:41.960Z,16.50
2022-07-29T05:26:08.304Z,16.60
2022-07-29T05:28:38.073Z,16.70
2022-07-29T05:31:04.528Z,16.70
2022-07-29T05:33:35.515Z,16.80
2022-07-29T05:36:02.802Z,16.90
2022-07-29T05:38:29.473Z,17.00
2022-07-29T05:40:58.308Z,17.10
2022-07-29T05:43:24.495Z,17.10
2022-07-29T05:45:50.896Z,17.20
2022-07-29T05:48:17.305Z,17.30
2022-07-29T05:50:44.118Z,17.40
2022-07-29T05:53:19.661Z,17.50
2022-07-29T05:55:47.524Z,17.80
2022-07-29T05:58:13.603Z,18.10
2022-07-29T06:00:40.214Z,18.30
2022-07-29T06:03:06.311Z,18.40
2022-07-29T06:05:32.448Z,18.40
2022-07-29T06:07:58.775Z,18.50
2022-07-29T06:10:26.855Z,18.50
2022-07-29T06:12:53.665Z,18.60
2022-07-29T06:15:19.876Z,18.80
2022-07-29T06:18:00.720Z,18.90
2022-07-29T06:20:32.402Z,19.00
2022-07-29T06:22:59.618Z,19.00
2022-07-29T06:25:26.446Z,19.20
2022-07-29T06:27:52.802Z,19.00
2022-07-29T06:30:18.941Z,18.80
2022-07-29T06:32:45.270Z,18.80
2022-07-29T06:35:39.262Z,19.00
2022-07-29T06:37:58.031Z,19.00
2022-07-29T06:40:45.021Z,19.00
2022-07-29T06:43:11.410Z,19.40
2022-07-29T06:45:38.894Z,19.90
2022-07-29T06:48:05.403Z,20.50
2022-07-29T06:50:31.592Z,21.10
2022-07-29T06:52:57.646Z,21.30
2022-07-29T06:55:24.872Z,21.40
2022-07-29T06:57:51.667Z,21.80
2022-07-29T07:00:17.905Z,22.00
2022-07-29T07:02:44.058Z,21.80
2022-07-29T07:05:10.351Z,21.80
2022-07-29T07:07:36.462Z,22.80
2022-07-29T07:10:03.003Z,23.50
2022-07-29T07:12:29.457Z,23.70
2022-07-29T07:14:55.672Z,23.10
2022-07-29T07:17:21.765Z,22.50
2022-07-29T07:19:47.882Z,22.20
2022-07-29T07:22:13.979Z,21.90
2022-07-29T07:24:40.058Z,21.70
2022-07-29T07:27:06.168Z,21.50
2022-07-29T07:29:32.230Z,21.40
2022-07-29T07:32:00.891Z,21.40
2022-07-29T07:34:29.759Z,21.50
2022-07-29T07:36:56.122Z,21.70
2022-07-29T07:39:22.307Z,21.80
2022-07-29T07:41:48.667Z,21.90
2022-07-29T07:44:16.260Z,21.90
2022-07-29T07:46:47.027Z,22.10
2022-07-29T07:49:13.179Z,22.10
2022-07-29T07:51:39.354Z,22.20
2022-07-29T07:54:05.543Z,22.10
2022-07-29T07:56:35.106Z,22.10
2022-07-29T07:59:01.858Z,22.20
2022-07-29T08:01:28.505Z,22.20
2022-07-29T08:03:54.676Z,22.30
2022-07-29T08:06:20.787Z,22.50
2022-07-29T08:08:46.941Z,23.40
2022-07-29T08:11:13.864Z,24.50
2022-07-29T08:13:40.021Z,26.20
2022-07-29T08:16:14.078Z,27.60
2022-07-29T08:18:43.843Z,28.60
2022-07-29T08:21:10.126Z,29.90
2022-07-29T08:23:46.462Z,29.80
2022-07-29T08:26:15.135Z,28.80
2022-07-29T08:28:46.602Z,27.80
2022-07-29T08:31:13.924Z,27.20
2022-07-29T08:33:40.494Z,26.60
2022-07-29T08:36:07.277Z,26.40
2022-07-29T08:38:34.018Z,26.70
2022-07-29T08:41:03.858Z,26.80
2022-07-29T08:43:29.963Z,26.80
2022-07-29T08:45:56.906Z,26.80
2022-07-29T08:48:24.456Z,26.80
2022-07-29T08:50:56.197Z,26.80
2022-07-29T08:53:27.262Z,26.80
2022-07-29T08:55:54.170Z,27.00
2022-07-29T08:58:23.168Z,27.30
2022-07-29T09:00:56.216Z,27.80
2022-07-29T09:03:30.288Z,28.00
2022-07-29T09:05:56.876Z,28.60
2022-07-29T09:08:24.126Z,29.20
2022-07-29T09:10:51.498Z,29.70
2022-07-29T09:13:18.291Z,29.40
2022-07-29T09:15:45.387Z,29.20
2022-07-29T09:18:30.294Z,29.50
2022-07-29T09:21:15.697Z,29.70
2022-07-29T09:23:43.904Z,30.50
2022-07-29T09:26:10.038Z,31.10
2022-07-29T09:28:42.432Z,31.50
2022-07-29T09:31:09.130Z,32.30
2022-07-29T09:33:36.102Z,33.10
2022-07-29T09:36:07.846Z,34.10
2022-07-29T09:38:35.665Z,34.90
2022-07-29T09:41:06.007Z,35.40
2022-07-29T09:43:33.594Z,35.80
2022-07-29T09:46:13.383Z,36.30
2022-07-29T09:48:39.758Z,36.70
2022-07-29T09:51:07.147Z,37.00
2022-07-29T09:53:36.872Z,37.40
2022-07-29T09:56:04.714Z,37.90
2022-07-29T09:58:33.932Z,38.30
2022-07-29T10:01:00.345Z,38.60
2022-07-29T10:03:26.749Z,38.90
2022-07-29T10:06:10.536Z,39.40
2022-07-29T10:08:37.689Z,39.80
2022-07-29T10:11:15.869Z,40.00
2022-07-29T10:13:45.422Z,40.00
2022-07-29T10:16:12.511Z,40.20
2022-07-29T10:18:42.037Z,40.40
2022-07-29T10:21:09.904Z,40.20
2022-07-29T10:23:46.894Z,40.30
2022-07-29T10:26:14.951Z,40.40
2022-07-29T10:28:41.320Z,40.50
2022-07-29T10:31:14.191Z,40.70
2022-07-29T10:33:52.959Z,41.00
2022-07-29T10:36:37.796Z,41.30
2022-07-29T10:39:41.826Z,41.30
2022-07-29T10:42:33.635Z,41.70
2022-07-29T10:45:04.506Z,41.80
2022-07-29T10:47:30.921Z,41.90
2022-07-29T10:50:04.713Z,42.10
2022-07-29T10:52:49.612Z,42.40
2022-07-29T10:55:38.740Z,42.50
2022-07-29T10:58:19.149Z,42.70
2022-07-29T11:00:49.350Z,42.70
2022-07-29T11:03:50.865Z,42.70
2022-07-29T11:06:26.920Z,42.70
2022-07-29T11:09:20.139Z,42.50
2022-07-29T11:11:51.349Z,42.40
2022-07-29T11:14:38.768Z,42.30
2022-07-29T11:17:08.796Z,41.90
2022-07-29T11:19:36.571Z,42.20
2022-07-29T11:22:08.993Z,42.00
2022-07-29T11:24:36.298Z,42.20
2022-07-29T11:27:14.610Z,42.50
2022-07-29T11:29:53.599Z,43.10
2022-07-29T11:32:22.755Z,42.90
2022-07-29T11:34:50.936Z,42.40
2022-07-29T11:37:19.998Z,42.50
2022-07-29T11:40:00.245Z,42.70
2022-07-29T11:42:34.188Z,43.00
2022-07-29T11:45:40.366Z,43.10
2022-07-29T11:47:54.501Z,43.00
2022-07-29T11:50:36.666Z,43.10
2022-07-29T11:53:13.505Z,42.90
2022-07-29T11:55:51.889Z,42.80
2022-07-29T11:58:26.150Z,42.70
2022-07-29T12:00:55.602Z,42.70
2022-07-29T12:03:35.196Z,42.60
2022-07-29T12:06:17.373Z,42.60
2022-07-29T12:08:45.200Z,42.80
2022-07-29T12:11:20.437Z,42.50
2022-07-29T12:13:50.466Z,42.30
2022-07-29T12:16:27.961Z,42.20
2022-07-29T12:18:57.805Z,42.10
2022-07-29T12:21:25.723Z,41.70
2022-07-29T12:23:57.058Z,40.80
2022-07-29T12:26:28.281Z,39.50
2022-07-29T12:28:54.889Z,38.50
2022-07-29T12:31:42.882Z,37.40
2022-07-29T12:34:09.290Z,36.80
2022-07-29T12:36:36.530Z,36.10
2022-07-29T12:39:04.249Z,35.60
2022-07-29T12:41:30.715Z,35.10
2022-07-29T12:43:57.068Z,34.70
2022-07-29T12:46:23.241Z,34.20
2022-07-29T12:48:56.885Z,34.00
2022-07-29T12:51:38.000Z,33.80
2022-07-29T12:54:13.818Z,33.90
2022-07-29T12:56:43.218Z,34.10
2022-07-29T12:59:22.436Z,34.60
2022-07-29T13:01:51.455Z,35.20
2022-07-29T13:04:31.388Z,35.60
2022-07-29T13:07:12.076Z,36.20
2022-07-29T13:09:48.596Z,36.90
2022-07-29T13:12:15.177Z,37.40
2022-07-29T13:14:44.113Z,37.90
2022-07-29T13:17:18.507Z,38.20
2022-07-29T13:19:46.104Z,38.50
2022-07-29T13:22:20.485Z,38.70
2022-07-29T13:24:56.940Z,38.80
2022-07-29T13:27:33.230Z,38.80
2022-07-29T13:30:01.302Z,38.80
2022-07-29T13:32:29.247Z,38.80
2022-07-29T13:35:00.550Z,38.80
2022-07-29T13:37:29.818Z,38.70
2022-07-29T13:39:57.005Z,38.60
2022-07-29T13:42:25.145Z,38.60
2022-07-29T13:44:52.072Z,38.70
2022-07-29T13:47:19.376Z,38.70
2022-07-29T13:49:45.712Z,38.70
2022-07-29T13:52:16.367Z,38.50
2022-07-29T13:54:43.819Z,38.20
2022-07-29T13:57:11.804Z,38.10
2022-07-29T13:59:42.201Z,37.90
2022-07-29T14:02:09.561Z,37.70
2022-07-29T14:04:36.123Z,37.50
2022-07-29T14:07:06.209Z,37.00
2022-07-29T14:09:37.464Z,36.40
2022-07-29T14:12:08.753Z,35.90
2022-07-29T14:14:36.645Z,35.50
2022-07-29T14:17:03.574Z,35.10
2022-07-29T14:19:30.056Z,34.60
2022-07-29T14:21:56.365Z,34.30
2022-07-29T14:24:24.372Z,33.90
2022-07-29T14:26:51.959Z,33.50
2022-07-29T14:29:18.243Z,33.10
2022-07-29T14:31:44.397Z,32.90
2022-07-29T14:34:11.448Z,32.60
2022-07-29T14:36:37.545Z,32.40
2022-07-29T14:39:04.407Z,32.10
2022-07-29T14:41:31.247Z,32.00
2022-07-29T14:43:58.058Z,31.80
2022-07-29T14:46:24.970Z,31.80
2022-07-29T14:48:51.232Z,31.50
2022-07-29T14:51:17.690Z,31.30
2022-07-29T14:53:43.932Z,31.20
2022-07-29T14:56:34.961Z,31.00
2022-07-29T14:58:59.453Z,30.90
2022-07-29T15:01:25.630Z,30.70
2022-07-29T15:03:53.955Z,30.70
2022-07-29T15:06:22.959Z,30.70
2022-07-29T15:08:49.138Z,30.60
2022-07-29T15:11:15.205Z,30.50
2022-07-29T15:13:41.330Z,30.40
2022-07-29T15:16:07.806Z,30.40
2022-07-29T15:18:34.044Z,30.30
2022-07-29T15:21:02.465Z,30.20
2022-07-29T15:23:28.618Z,30.20
2022-07-29T15:25:54.745Z,30.30
2022-07-29T15:28:20.949Z,30.20
2022-07-29T15:30:47.563Z,30.10
2022-07-29T15:33:13.634Z,29.90
2022-07-29T15:35:40.837Z,29.80
2022-07-29T15:38:07.374Z,29.70
2022-07-29T15:40:33.596Z,29.60
2022-07-29T15:43:05.812Z,29.50
2022-07-29T15:46:08.187Z,29.50
2022-07-29T15:48:38.992Z,29.50
2022-07-29T15:51:05.205Z,29.50
2022-07-29T15:53:31.337Z,29.50
2022-07-29T15:55:59.263Z,29.50
2022-07-29T15:58:25.381Z,29.40
2022-07-29T16:00:51.531Z,29.30
2022-07-29T16:03:17.941Z,29.20
2022-07-29T16:05:44.808Z,29.10
2022-07-29T16:08:11.038Z,29.00
2022-07-29T16:10:37.137Z,29.00
2022-07-29T16:13:03.368Z,28.90
2022-07-29T16:15:29.467Z,28.80
2022-07-29T16:17:56.029Z,28.70
2022-07-29T16:20:22.363Z,28.60
2022-07-29T16:22:48.792Z,28.60
2022-07-29T16:25:14.902Z,28.50
2022-07-29T16:27:43.825Z,28.50
2022-07-29T16:30:10.614Z,28.40
2022-07-29T16:32:37.165Z,28.30
2022-07-29T16:35:05.172Z,28.30
2022-07-29T16:37:34.690Z,28.30
2022-07-29T16:40:01.728Z,28.20
2022-07-29T16:42:45.438Z,28.10
2022-07-29T16:45:13.302Z,28.00
2022-07-29T16:47:40.201Z,28.00
2022-07-29T16:50:06.914Z,27.80
2022-07-29T16:52:33.160Z,27.80
2022-07-29T16:54:59.318Z,27.80
2022-07-29T16:57:25.477Z,27.80
2022-07-29T16:59:51.791Z,27.70
2022-07-29T17:02:17.998Z,27.60
2022-07-29T17:04:44.144Z,27.50
2022-07-29T17:07:10.336Z,27.40
2022-07-29T17:09:36.663Z,27.30
2022-07-29T17:12:02.952Z,27.30
2022-07-29T17:14:31.052Z,27.30
2022-07-29T17:17:01.092Z,27.20
2022-07-29T17:19:30.166Z,27.20
2022-07-29T17:22:04.653Z,27.10
2022-07-29T17:24:33.380Z,27.00
2022-07-29T17:26:59.822Z,27.00
2022-07-29T17:29:26.457Z,26.80
2022-07-29T17:31:52.670Z,26.80
2022-07-29T17:34:20.540Z,26.70
2022-07-29T17:36:46.700Z,26.50
2022-07-29T17:39:12.836Z,26.50
2022-07-29T17:41:44.138Z,26.50
2022-07-29T17:44:10.616Z,26.40
2022-07-29T17:46:36.768Z,26.40
2022-07-29T17:49:03.829Z,26.30
2022-07-29T17:51:30.309Z,26.20
2022-07-29T17:53:58.028Z,26.10
2022-07-29T17:56:26.002Z,26.00
2022-07-29T17:58:52.500Z,26.00
2022-07-29T18:01:18.956Z,25.90
2022-07-29T18:03:45.160Z,25.90
2022-07-29T18:06:11.444Z,25.80
2022-07-29T18:08:39.506Z,25.70
2022-07-29T18:11:05.906Z,25.70
2022-07-29T18:13:32.022Z,25.60
2022-07-29T18:16:00.463Z,25.60
2022-07-29T18:18:27.379Z,25.50
2022-07-29T18:20:53.691Z,25.50
2022-07-29T18:23:20.180Z,25.40
2022-07-29T18:25:47.593Z,25.30
2022-07-29T18:28:14.102Z,25.20
2022-07-29T18:30:41.813Z,25.10
2022-07-29T18:33:22.642Z,25.00
2022-07-29T18:36:10.078Z,25.00
2022-07-29T18:38:39.056Z,24.90
2022-07-29T18:41:05.218Z,24.70
2022-07-29T18:43:31.284Z,24.60
2022-07-29T18:45:57.715Z,24.50
2022-07-29T18:48:23.886Z,24.40
2022-07-29T18:50:50.127Z,24.30
2022-07-29T18:53:16.690Z,24.10
2022-07-29T18:55:44.648Z,24.00
2022-07-29T18:58:10.892Z,23.90
2022-07-29T19:00:37.525Z,23.80
2022-07-29T19:03:03.931Z,23.70
2022-07-29T19:05:30.183Z,23.60
2022-07-29T19:07:56.336Z,23.50
2022-07-29T19:10:22.596Z,23.40
2022-07-29T19:12:49.056Z,23.40
2022-07-29T19:15:19.879Z,23.30
2022-07-29T19:17:47.755Z,23.20
2022-07-29T19:20:14.987Z,23.10
2022-07-29T19:22:41.386Z,23.00
2022-07-29T19:25:08.568Z,23.00
2022-07-29T19:27:34.729Z,22.90
2022-07-29T19:30:02.598Z,22.80
2022-07-29T19:32:28.988Z,22.70
2022-07-29T19:35:13.545Z,22.70
2022-07-29T19:37:39.696Z,22.60
2022-07-29T19:40:06.553Z,22.50
2022-07-29T19:42:32.904Z,22.50
2022-07-29T19:44:59.602Z,22.40
2022-07-29T19:47:25.659Z,22.30
2022-07-29T19:49:51.764Z,22.20
2022-07-29T19:52:17.911Z,22.20
2022-07-29T19:54:44.311Z,22.10
2022-07-29T19:57:10.439Z,22.10
2022-07-29T19:59:36.806Z,22.00
2022-07-29T20:02:03.347Z,21.90
2022-07-29T20:04:30.117Z,21.90
2022-07-29T20:07:00.845Z,21.80
2022-07-29T20:09:27.566Z,21.70
2022-07-29T20:11:53.831Z,21.70
2022-07-29T20:14:20.007Z,21.60
2022-07-29T20:16:46.174Z,21.60
2022-07-29T20:19:12.312Z,21.50
2022-07-29T20:21:38.396Z,21.50
2022-07-29T20:24:04.941Z,21.40
2022-07-29T20:26:31.452Z,21.30
2022-07-29T20:28:57.605Z,21.30
2022-07-29T20:31:24.124Z,21.20
2022-07-29T20:33:50.542Z,21.20
2022-07-29T20:36:18.129Z,21.10
2022-07-29T20:38:44.208Z,21.00
2022-07-29T20:41:10.328Z,21.00
2022-07-29T20:43:39.173Z,20.90
2022-07-29T20:46:05.888Z,20.90
2022-07-29T20:48:32.379Z,20.80
2022-07-29T20:50:58.829Z,20.70
2022-07-29T20:53:25.086Z,20.60
2022-07-29T20:55:51.907Z,20.60
2022-07-29T20:58:19.339Z,20.60
2022-07-29T21:00:46.007Z,20.50
2022-07-29T21:03:12.145Z,20.50
2022-07-29T21:05:40.160Z,20.50
2022-07-29T21:08:09.732Z,20.50
2022-07-29T21:10:36.185Z,20.50
2022-07-29T21:13:02.628Z,20.50
2022-07-29T21:15:29.696Z,20.40
2022-07-29T21:18:01.912Z,20.40
2022-07-29T21:20:30.472Z,20.30
2022-07-29T21:22:57.547Z,20.30
2022-07-29T21:25:26.059Z,20.30
2022-07-29T21:28:18.376Z,20.20
2022-07-29T21:30:44.484Z,20.10
2022-07-29T21:33:10.751Z,20.10
2022-07-29T21:36:06.908Z,20.10
2022-07-29T21:38:22.974Z,20.00
2022-07-29T21:40:51.405Z,20.00
2022-07-29T21:43:18.481Z,20.00
2022-07-29T21:45:49.418Z,19.90
2022-07-29T21:48:27.939Z,19.80
2022-07-29T21:50:54.246Z,19.80
2022-07-29T21:53:22.894Z,19.70
2022-07-29T21:55:50.015Z,19.70
2022-07-29T21:58:17.457Z,19.60
2022-07-29T22:00:43.887Z,19.60
2022-07-29T22:03:10.218Z,19.50
2022-07-29T22:05:36.375Z,19.50
2022-07-29T22:08:02.602Z,19.40
2022-07-29T22:10:30.015Z,19.30
2022-07-29T22:12:58.328Z,19.30
2022-07-29T22:15:25.013Z,19.20
2022-07-29T22:17:51.425Z,19.20
2022-07-29T22:20:17.685Z,19.10
2022-07-29T22:22:44.274Z,19.10
2022-07-29T22:25:10.794Z,19.10
2022-07-29T22:27:37.813Z,19.00
2022-07-29T22:30:06.245Z,19.00
2022-07-29T22:32:33.336Z,19.00
2022-07-29T22:34:59.650Z,18.90
2022-07-29T22:37:25.882Z,18.90
2022-07-29T22:39:52.256Z,18.90
2022-07-29T22:42:18.333Z,18.90
2022-07-29T22:44:44.589Z,18.80
2022-07-29T22:47:10.655Z,18.80
2022-07-29T22:49:36.730Z,18.70
2022-07-29T22:52:02.973Z,18.70
2022-07-29T22:54:29.207Z,18.60
2022-07-29T22:56:55.739Z,18.60
2022-07-29T22:59:22.086Z,18.50
2022-07-29T23:01:48.319Z,18.50
2022-07-29T23:04:14.568Z,18.40
2022-07-29T23:06:40.661Z,18.30
2022-07-29T23:09:07.163Z,18.30
2022-07-29T23:11:33.596Z,18.20
2022-07-29T23:13:59.633Z,18.20
2022-07-29T23:16:26.778Z,18.10
2022-07-29T23:18:53.683Z,18.10
2022-07-29T23:21:22.950Z,18.00
2022-07-29T23:23:49.038Z,18.00
2022-07-29T23:26:16.195Z,18.00
2022-07-29T23:28:45.698Z,17.90
2022-07-29T23:31:12.796Z,17.90
2022-07-29T23:33:40.277Z,17.80
2022-07-29T23:36:06.458Z,17.80
2022-07-29T23:38:32.944Z,17.70
2022-07-29T23:41:00.853Z,17.60
2022-07-29T23:43:28.422Z,17.60
2022-07-29T23:45:55.507Z,17.60
2022-07-29T23:48:24.732Z,17.50
2022-07-29T23:50:51.009Z,17.50
2022-07-29T23:53:17.134Z,17.40
2022-07-29T23:55:43.584Z,17.40
2022-07-29T23:58:09.681Z,17.30
